Flight Track Log - Related Links

Times and Time Zones

All times are in EDT time to prevent confusion due to time zone crossing. See the THY1073 flight status page for this flight to view local times or setup timezone preferences in your user account.

Time Position Orientation Groundspeed Altitude Reporting Facility
EDT Latitude Longitude Course Direction KTS MPH feet Rate Location/Type
Sat 12:49:00 AM 41.0237 28.2743 277° West  Level Estimated
Sat 12:50:00 AM 41.0350 28.1375 276° West  Level Estimated
Sat 12:51:00 AM 41.0462 28.0006 276° West  Level Estimated
Sat 12:52:00 AM 41.0571 27.8637 276° West  Level Estimated
Sat 12:53:00 AM 41.0679 27.7267 276° West  Level Estimated
Sat 12:54:00 AM 41.0786 27.5897 276° West  Level Estimated
Sat 12:55:00 AM 41.0891 27.4527 276° West  Level Estimated
Sat 12:56:00 AM 41.0994 27.3156 276° West  Level Estimated
Sat 12:57:00 AM 41.1096 27.1784 276° West  Level Estimated
Sat 12:58:00 AM 41.1196 27.0413 276° West  Level Estimated
Sat 12:59:00 AM 41.1294 26.9040 275° West  Level Estimated
Sat 01:00:00 AM 41.1391 26.7668 275° West  Level Estimated
Sat 01:01:00 AM 41.1486 26.6295 275° West  Level Estimated
Sat 01:02:00 AM 41.1580 26.4921 275° West  Level Estimated
Sat 01:03:00 AM 41.1671 26.3548 275° West  Level Estimated
Sat 01:04:00 AM 41.1762 26.2173 275° West  Level Estimated
Sat 01:05:00 AM 41.1850 26.0799 275° West  Level Estimated
Sat 01:06:00 AM 41.1937 25.9424 275° West  Level Estimated
Sat 01:07:00 AM 41.2023 25.8049 275° West  Level Estimated
Sat 01:08:00 AM 41.2106 25.6673 275° West  Level Estimated
Sat 01:09:00 AM 41.2188 25.5297 275° West  Level Estimated
Sat 01:10:00 AM 41.2269 25.3921 274° West  Level Estimated
Sat 01:11:00 AM 41.2347 25.2544 274° West  Level Estimated
Sat 01:12:00 AM 41.2425 25.1167 274° West  Level Estimated
Sat 01:13:00 AM 41.2500 24.9790 274° West  Level Estimated
Sat 01:14:00 AM 41.2574 24.8412 274° West  Level Estimated
Sat 01:15:00 AM 41.2646 24.7034 274° West  Level Estimated
Sat 01:16:00 AM 41.2717 24.5656 274° West  Level Estimated
Sat 01:17:00 AM 41.2786 24.4278 274° West  Level Estimated
Sat 01:18:00 AM 41.2853 24.2899 274° West  Level Estimated
Sat 01:19:00 AM 41.2919 24.1520 274° West  Level Estimated
Sat 01:20:00 AM 41.2983 24.0140 274° West  Level Estimated
Sat 01:21:00 AM 41.3045 23.8761 273° West  Level Estimated
Sat 01:22:00 AM 41.3106 23.7381 273° West  Level Estimated
Sat 01:23:00 AM 41.3165 23.6001 273° West  Level Estimated
Sat 01:24:00 AM 41.3222 23.4620 273° West  Level Estimated
Sat 01:25:00 AM 41.3278 23.3240 273° West  Level Estimated
Sat 01:26:00 AM 41.3332 23.1859 273° West  Level Estimated
Sat 01:27:00 AM 41.3384 23.0478 273° West  Level Estimated
Sat 01:28:00 AM 41.3435 22.9096 273° West  Level Estimated
Sat 01:29:00 AM 41.3484 22.7715 273° West  Level Estimated
Sat 01:30:00 AM 41.3532 22.6333 273° West  Level Estimated
Sat 01:31:00 AM 41.3578 22.4951 273° West  Level Estimated
Sat 01:32:00 AM 41.3622 22.3569 272° West  Level Estimated
Sat 01:33:00 AM 41.3664 22.2187 272° West  Level Estimated
Sat 01:34:00 AM 41.3705 22.0804 272° West  Level Estimated
Sat 01:35:00 AM 41.3744 21.9422 272° West  Level Estimated
Sat 01:36:00 AM 41.3782 21.8039 272° West  Level Estimated
Sat 01:37:00 AM 41.3818 21.6656 272° West  Level Estimated
Sat 01:38:00 AM 41.3852 21.5273 272° West  Level Estimated
Sat 01:39:00 AM 41.3885 21.3889 272° West  Level Estimated
Sat 01:40:00 AM 41.3916 21.2506 272° West  Level Estimated
Sat 01:41:00 AM 41.3945 21.1122 272° West  Level Estimated
Sat 01:42:00 AM 41.3973 20.9739 272° West  Level Estimated
Sat 01:43:00 AM 41.3999 20.8355 271° West  Level Estimated
Sat 01:44:00 AM 41.4023 20.6971 271° West  Level Estimated
Sat 01:45:00 AM 41.4046 20.5587 271° West  Level Estimated
Sat 01:46:00 AM 41.4067 20.4203 271° West  Level Estimated
Sat 01:47:00 AM 41.4086 20.2819 271° West  Level Estimated
Sat 01:48:00 AM 41.4104 20.1435 271° West  Level Estimated
Sat 01:49:00 AM 41.4120 20.0051 271° West  Level Estimated
Sat 01:50:00 AM 41.4134 19.8666 271° West  Level Estimated
Sat 01:51:00 AM 41.4147 19.7282 271° West  Level Estimated
Sat 01:52:00 AM 41.4147 19.7206 271° West  Level Estimated
Sat 01:53:00 AM 41.4147 19.7206 21° North  Level Estimated
Sat 01:54:00 AM 41.4147 19.7206 21° North  Level Estimated
Sat 01:55:00 AM 41.4147 19.7206 21° North  Level Estimated
Sat 01:56:00 AM 41.4147 19.7206 21° North  Level Estimated
Sat 01:57:00 AM 41.4147 19.7206 21° North  Level Estimated
Sat 01:58:00 AM 41.4147 19.7206 21° North  Level Estimated
Sat 01:59:00 AM 41.4147 19.7206 21° North  Level Estimated
Sat 02:00:00 AM 41.4147 19.7206 21° North  Level Estimated
Sat 02:01:00 AM 41.4147 19.7206 21° North  Level Estimated
Sat 02:02:00 AM 41.4147 19.7206 21° North  Level Estimated
Sat 02:03:00 AM 41.4147 19.7206 21° North  Level Estimated
Sat 02:04:00 AM 41.4147 19.7206 21° North  Level Estimated
Sat 02:05:00 AM 41.4147 19.7206 21° North  Level Estimated
Sat 02:06:00 AM 41.4147 19.7206 21° North  Level Estimated
Sat 02:07:00 AM 41.4147 19.7206 21° North  Level Estimated

Login

Don't have an account? Register now (free) for customized features, flight alerts, and more!